Time;durP1;ratioP1;P1;durP2;ratioP2;P2;SDS_P1;SDS_P2;PMS_P1;PMS_P2;Temp;Humidity;BMP_temperature;BMP_pressure;BME280_temperature;BME280_humidity;BME280_pressure;Samples;Min_cycle;Max_cycle;Signal;HPM_P1;HPM_P2
2022/09/10 00:01:26;;;;;;;0.10;0.10;;;;;;;17.14;67.28;101068.94;7363690;19;20450;-62
2022/09/10 00:03:53;;;;;;;0.00;0.00;;;;;;;17.10;67.27;101072.63;7368085;19;20030;-61
2022/09/10 00:06:20;;;;;;;0.00;0.00;;;;;;;17.06;68.38;101071.03;7364754;19;20098;-61
2022/09/10 00:08:46;;;;;;;0.00;0.00;;;;;;;17.03;67.47;101065.88;7367678;19;20259;-61
2022/09/10 00:11:11;;;;;;;0.00;0.00;;;;;;;16.99;67.92;101074.88;7363847;19;20474;-61
2022/09/10 00:13:39;;;;;;;0.00;0.00;;;;;;;16.96;67.18;101075.00;7368464;19;20017;-61
2022/09/10 00:16:08;;;;;;;0.00;0.00;;;;;;;16.92;67.20;101083.97;7363367;19;20006;-61
2022/09/10 00:18:34;;;;;;;0.00;0.00;;;;;;;16.82;67.21;101073.78;7365186;19;20036;-61
2022/09/10 00:21:03;;;;;;;0.00;0.00;;;;;;;16.84;67.01;101081.66;7365293;19;20010;-61
2022/09/10 00:23:29;;;;;;;0.00;0.00;;;;;;;16.79;67.04;101083.66;7366190;19;20037;-61
2022/09/10 00:25:56;;;;;;;0.00;0.00;;;;;;;16.78;67.22;101080.16;7366058;19;20018;-62
2022/09/10 00:28:24;;;;;;;0.00;0.00;;;;;;;16.75;66.93;101092.59;7366176;19;20050;-61
2022/09/10 00:30:53;;;;;;;0.00;0.00;;;;;;;16.71;67.78;101091.84;7363513;19;20015;-61
2022/09/10 00:33:20;;;;;;;0.00;0.00;;;;;;;16.69;67.51;101083.13;7366975;19;20049;-61
2022/09/10 00:35:46;;;;;;;;;;;;;;;16.68;66.51;101088.47;7366460;19;20006;-61
2022/09/10 00:38:13;;;;;;;0.00;0.00;;;;;;;16.62;67.47;101089.56;7364320;19;19919;-61
2022/09/10 00:40:39;;;;;;;0.05;0.05;;;;;;;16.59;68.08;101095.00;7364665;19;20039;-61
2022/09/10 00:43:23;;;;;;;0.00;0.00;;;;;;;16.56;66.89;101095.09;7366186;19;20570;-61
2022/09/10 00:45:51;;;;;;;0.00;0.00;;;;;;;16.50;67.24;101092.72;7364228;19;20010;-61
2022/09/10 00:48:29;;;;;;;0.00;0.00;;;;;;;16.45;66.67;101084.16;7364782;19;20014;-61
2022/09/10 00:51:04;;;;;;;0.08;0.08;;;;;;;16.41;66.79;101083.41;7362749;19;20037;-61
2022/09/10 00:53:30;;;;;;;0.00;0.00;;;;;;;16.38;67.53;101080.06;7364604;19;20344;-61
2022/09/10 00:56:01;;;;;;;0.00;0.00;;;;;;;16.25;67.42;101059.44;7363462;19;20077;-61
2022/09/10 00:58:28;;;;;;;0.00;0.00;;;;;;;16.29;67.56;101074.22;7365030;19;20046;-61
2022/09/10 01:00:56;;;;;;;0.00;0.00;;;;;;;16.28;67.94;101067.25;7364176;19;20038;-61
2022/09/10 01:03:22;;;;;;;0.00;0.00;;;;;;;16.25;67.44;101066.50;7364099;19;20006;-61
2022/09/10 01:05:49;;;;;;;0.00;0.00;;;;;;;16.22;67.60;101078.03;7363935;19;20054;-61
2022/09/10 01:08:16;;;;;;;0.00;0.00;;;;;;;16.12;68.35;101060.88;7366022;19;20467;-61
2022/09/10 01:11:25;;;;;;;0.00;0.00;;;;;;;16.20;67.39;101069.31;7361353;19;20014;-61
2022/09/10 01:14:32;;;;;;;0.00;0.00;;;;;;;16.18;68.43;101075.59;7262502;19;2004518;-61
2022/09/10 01:17:04;;;;;;;0.00;0.00;;;;;;;16.13;68.92;101073.13;7259985;19;2004195;-61
2022/09/10 01:20:06;;;;;;;0.00;0.00;;;;;;;16.12;68.19;101073.19;7362903;19;20042;-62
2022/09/10 01:22:51;;;;;;;0.00;0.00;;;;;;;16.07;68.45;101074.25;7261717;19;2004425;-61
2022/09/10 01:25:28;;;;;;;0.00;0.00;;;;;;;16.05;68.85;101075.19;7362226;19;20010;-61
2022/09/10 01:27:58;;;;;;;0.00;0.00;;;;;;;15.97;69.68;101066.75;7362975;19;20855;-61
2022/09/10 01:30:29;;;;;;;0.00;0.00;;;;;;;15.97;68.55;101077.28;7362219;19;20474;-62
2022/09/10 01:33:23;;;;;;;0.00;0.00;;;;;;;15.93;68.17;101081.81;7364695;19;20051;-61
2022/09/10 01:36:01;;;;;;;0.00;0.00;;;;;;;15.86;68.14;101079.47;7260443;19;2004558;-61
2022/09/10 01:38:37;;;;;;;0.00;0.00;;;;;;;15.83;68.29;101091.00;7362885;19;20522;-61
2022/09/10 01:41:03;;;;;;;0.00;0.00;;;;;;;15.81;68.81;101091.06;7360072;19;20021;-61
2022/09/10 01:43:29;;;;;;;0.00;0.00;;;;;;;15.78;68.83;101088.53;7364194;19;20071;-62
2022/09/10 01:46:25;;;;;;;0.00;0.00;;;;;;;15.79;68.53;101090.25;7362022;19;20933;-61
2022/09/10 01:49:18;;;;;;;0.00;0.00;;;;;;;15.75;68.25;101083.38;7259538;19;2004417;-61
2022/09/10 01:52:08;;;;;;;0.00;0.00;;;;;;;15.72;69.11;101095.81;7262077;19;2004303;-61
2022/09/10 01:54:45;;;;;;;0.00;0.00;;;;;;;15.68;69.01;101102.97;7362531;19;20086;-61
2022/09/10 01:57:43;;;;;;;0.10;0.10;;;;;;;15.67;69.16;101105.66;7361738;19;20018;-61
2022/09/10 02:00:11;;;;;;;0.00;0.00;;;;;;;15.62;69.63;101111.06;7258524;19;2004417;-62
2022/09/10 02:03:00;;;;;;;0.00;0.00;;;;;;;15.62;68.84;101103.16;7362103;19;20044;-62
2022/09/10 02:05:29;;;;;;;0.00;0.00;;;;;;;15.56;70.40;101100.72;7258114;19;2004412;-60
2022/09/10 02:08:02;;;;;;;0.00;0.00;;;;;;;15.54;70.06;101097.31;7364648;19;20014;-61
2022/09/10 02:10:28;;;;;;;0.00;0.00;;;;;;;15.50;70.21;101101.81;7367148;19;20455;-61
2022/09/10 02:12:54;;;;;;;0.00;0.00;;;;;;;15.48;69.51;101106.28;7367570;19;20014;-61
2022/09/10 02:15:21;;;;;;;0.00;0.00;;;;;;;15.48;69.66;101118.59;7364907;19;20024;-61
2022/09/10 02:17:48;;;;;;;0.00;0.00;;;;;;;15.43;69.30;101102.13;7369351;19;20031;-61
2022/09/10 02:20:14;;;;;;;0.00;0.00;;;;;;;15.37;69.38;101097.09;7367527;19;20018;-61
2022/09/10 02:22:48;;;;;;;0.00;0.00;;;;;;;15.43;69.03;101107.38;7367391;19;20011;-62
2022/09/10 02:25:15;;;;;;;0.08;0.08;;;;;;;15.37;68.88;101104.97;7367968;19;20861;-61
2022/09/10 02:27:42;;;;;;;0.00;0.00;;;;;;;15.37;68.62;101118.13;7366342;19;20019;-61
2022/09/10 02:30:07;;;;;;;0.00;0.00;;;;;;;15.34;68.73;101107.69;7365714;19;20021;-62
2022/09/10 02:32:33;;;;;;;0.00;0.00;;;;;;;15.34;68.45;101115.59;7368722;19;20792;-61
2022/09/10 02:34:58;;;;;;;0.00;0.00;;;;;;;15.30;68.64;101104.31;7368362;19;20105;-61
2022/09/10 02:37:24;;;;;;;0.00;0.00;;;;;;;15.28;69.04;101107.00;7366213;19;20040;-61
2022/09/10 02:39:49;;;;;;;0.00;0.00;;;;;;;15.26;68.61;101108.84;7364733;19;20006;-62
2022/09/10 02:42:16;;;;;;;0.00;0.00;;;;;;;15.24;69.03;101107.16;7368215;19;20027;-62
2022/09/10 02:44:42;;;;;;;0.00;0.00;;;;;;;15.11;69.02;101095.38;7365026;19;20455;-61
2022/09/10 02:47:08;;;;;;;0.00;0.00;;;;;;;15.20;69.13;101116.06;7366612;19;20007;-61
2022/09/10 02:49:33;;;;;;;0.10;0.10;;;;;;;15.18;68.90;101123.19;7368516;19;20011;-61
2022/09/10 02:52:01;;;;;;;0.00;0.00;;;;;;;15.14;69.41;101111.91;7364421;19;20118;-61
2022/09/10 02:54:27;;;;;;;0.00;0.00;;;;;;;15.09;69.02;101113.81;7367055;19;20045;-61
2022/09/10 02:56:52;;;;;;;0.00;0.00;;;;;;;15.11;69.01;101117.28;7367655;19;20015;-61
2022/09/10 02:59:18;;;;;;;0.00;0.00;;;;;;;15.10;69.06;101110.28;7364454;19;20494;-61
2022/09/10 03:01:43;;;;;;;0.00;0.00;;;;;;;15.08;68.49;101122.63;7366052;19;20150;-62
2022/09/10 03:04:09;;;;;;;0.00;0.00;;;;;;;15.05;68.79;101118.34;7359517;19;20006;-61
2022/09/10 03:06:35;;;;;;;0.00;0.00;;;;;;;15.02;68.95;101113.19;7364192;19;20010;-61
2022/09/10 03:09:01;;;;;;;0.00;0.00;;;;;;;14.99;69.50;101117.69;7367587;19;20531;-61
2022/09/10 03:11:26;;;;;;;0.00;0.00;;;;;;;14.98;70.19;101121.22;7364817;19;20029;-61
2022/09/10 03:13:52;;;;;;;0.00;0.00;;;;;;;14.97;70.60;101114.25;7368183;19;20021;-61
2022/09/10 03:16:19;;;;;;;0.00;0.00;;;;;;;14.95;70.76;101126.59;7363382;19;20014;-61
2022/09/10 03:18:44;;;;;;;0.00;0.00;;;;;;;14.88;70.17;101114.56;7361232;19;20049;-61
2022/09/10 03:21:21;;;;;;;0.00;0.00;;;;;;;14.87;70.04;101103.19;7364984;19;20457;-61
2022/09/10 03:23:49;;;;;;;0.00;0.00;;;;;;;14.88;70.97;101117.19;7367855;19;20817;-61
2022/09/10 03:26:16;;;;;;;0.00;0.00;;;;;;;14.86;70.17;101113.78;7367686;19;20031;-62
2022/09/10 03:28:43;;;;;;;0.00;0.00;;;;;;;14.83;69.88;101111.22;7367943;19;20787;-62
2022/09/10 03:31:09;;;;;;;0.00;0.00;;;;;;;14.81;69.80;101107.81;7366004;19;20081;-61
2022/09/10 03:33:36;;;;;;;0.00;0.00;;;;;;;14.78;69.87;101108.75;7364086;19;20016;-61
2022/09/10 03:36:04;;;;;;;0.00;0.00;;;;;;;14.75;70.31;101107.09;7365346;19;20010;-61
2022/09/10 03:38:29;;;;;;;0.00;0.00;;;;;;;14.71;70.35;101102.84;7367463;19;20386;-61
2022/09/10 03:40:55;;;;;;;0.00;0.00;;;;;;;14.68;69.37;101095.06;7364802;19;20002;-62
2022/09/10 03:43:21;;;;;;;0.00;0.00;;;;;;;14.65;68.88;101089.94;7365967;19;20014;-61
2022/09/10 03:45:50;;;;;;;0.00;0.00;;;;;;;14.63;68.92;101094.34;7368301;19;20010;-61
2022/09/10 03:48:20;;;;;;;0.00;0.00;;;;;;;14.62;68.62;101099.66;7366369;19;20437;-62
2022/09/10 03:50:46;;;;;;;0.00;0.00;;;;;;;14.58;68.54;101096.28;7365058;19;20014;-61
2022/09/10 03:53:13;;;;;;;0.00;0.00;;;;;;;14.54;68.41;101094.66;7366426;19;20017;-61
2022/09/10 03:55:38;;;;;;;0.00;0.00;;;;;;;14.52;68.62;101092.09;7365092;19;20767;-61
2022/09/10 03:58:07;;;;;;;0.00;0.00;;;;;;;14.50;68.31;101087.81;7365823;19;20010;-61
2022/09/10 04:00:33;;;;;;;0.00;0.00;;;;;;;14.48;69.38;101094.84;7365957;19;20562;-62
2022/09/10 04:02:59;;;;;;;0.00;0.00;;;;;;;14.45;69.53;101100.19;7366002;19;20497;-61
2022/09/10 04:05:26;;;;;;;0.00;0.00;;;;;;;14.43;70.27;101096.75;7365676;19;20022;-61
2022/09/10 04:07:53;;;;;;;0.00;0.00;;;;;;;14.40;70.63;101096.88;7366883;19;20006;-61
2022/09/10 04:10:20;;;;;;;0.00;0.00;;;;;;;14.36;69.37;101095.22;7366657;19;20010;-61
2022/09/10 04:12:47;;;;;;;;;;;;;;;14.35;68.73;101090.91;7367551;19;20007;-62
2022/09/10 04:15:13;;;;;;;0.00;0.00;;;;;;;14.31;69.74;101102.41;7364277;19;19915;-61
2022/09/10 04:17:39;;;;;;;0.00;0.00;;;;;;;14.27;68.77;101091.97;7368108;19;20003;-61
2022/09/10 04:20:04;;;;;;;0.00;0.00;;;;;;;14.23;69.07;101090.34;7365443;19;20367;-61
2022/09/10 04:22:30;;;;;;;0.00;0.00;;;;;;;14.18;69.61;101094.88;7364241;19;20058;-61
2022/09/10 04:24:55;;;;;;;0.00;0.00;;;;;;;14.18;69.54;101092.25;7365373;19;20427;-61
2022/09/10 04:27:21;;;;;;;0.00;0.00;;;;;;;14.14;69.29;101090.66;7366279;19;20615;-61
2022/09/10 04:29:47;;;;;;;0.00;0.00;;;;;;;14.11;69.38;101096.00;7366035;19;20014;-62
2022/09/10 04:32:12;;;;;;;0.00;0.00;;;;;;;14.10;70.54;101101.31;7363812;19;20021;-61
2022/09/10 04:34:38;;;;;;;0.00;0.00;;;;;;;14.08;70.55;101118.88;7365548;19;20131;-61
2022/09/10 04:37:04;;;;;;;0.00;0.00;;;;;;;14.05;70.21;101122.47;7364576;19;20014;-61
2022/09/10 04:39:29;;;;;;;0.00;0.00;;;;;;;14.04;70.61;101115.50;7365694;19;20439;-62
2022/09/10 04:41:54;;;;;;;0.00;0.00;;;;;;;14.01;70.44;101120.81;7362212;19;20011;-62
2022/09/10 04:44:20;;;;;;;0.00;0.00;;;;;;;13.99;70.72;101123.50;7364377;19;20764;-61
2022/09/10 04:46:46;;;;;;;0.00;0.00;;;;;;;13.97;70.08;101133.19;7365302;19;20015;-61
2022/09/10 04:49:12;;;;;;;0.00;0.00;;;;;;;13.94;70.82;101129.81;7360461;19;20794;-61
2022/09/10 04:51:37;;;;;;;0.00;0.00;;;;;;;13.92;70.30;101131.59;7365565;19;20052;-61
2022/09/10 04:54:03;;;;;;;0.00;0.00;;;;;;;13.84;70.10;101128.31;7361220;19;20028;-61
2022/09/10 04:56:28;;;;;;;0.00;0.00;;;;;;;13.88;70.83;101135.22;7365106;19;20019;-61
2022/09/10 04:58:54;;;;;;;0.00;0.00;;;;;;;13.86;70.68;101142.28;7365131;19;20010;-62
2022/09/10 05:01:19;;;;;;;0.00;0.00;;;;;;;13.84;71.20;101144.06;7363190;19;20028;-61
2022/09/10 05:03:45;;;;;;;0.00;0.00;;;;;;;13.82;71.16;101145.91;7366278;19;20500;-61
2022/09/10 05:06:10;;;;;;;0.00;0.00;;;;;;;13.81;70.79;101144.19;7360695;19;20017;-61
2022/09/10 05:08:36;;;;;;;0.00;0.00;;;;;;;13.77;70.91;101148.66;7366250;19;20054;-61
2022/09/10 05:11:01;;;;;;;0.00;0.00;;;;;;;13.77;70.50;101152.13;7362011;19;20018;-61
2022/09/10 05:13:30;;;;;;;0.00;0.00;;;;;;;13.75;70.18;101151.31;7365479;19;20014;-61
2022/09/10 05:15:57;;;;;;;0.03;0.03;;;;;;;13.72;70.17;101137.44;7363308;19;21447;-61
2022/09/10 05:18:24;;;;;;;0.00;0.00;;;;;;;13.72;70.44;101147.91;7365440;19;20055;-61
2022/09/10 05:20:50;;;;;;;0.00;0.00;;;;;;;13.68;70.63;101152.38;7362883;19;20014;-61
2022/09/10 05:23:15;;;;;;;0.00;0.00;;;;;;;13.68;70.28;101160.25;7363927;19;20422;-62
2022/09/10 05:25:43;;;;;;;0.00;0.00;;;;;;;13.67;70.13;101166.41;7364337;19;20769;-62
2022/09/10 05:28:09;;;;;;;0.00;0.00;;;;;;;13.55;71.02;101152.78;7364798;19;20021;-62
2022/09/10 05:30:35;;;;;;;0.00;0.00;;;;;;;13.62;71.46;101173.56;7363533;19;20031;-61
2022/09/10 05:33:00;;;;;;;0.00;0.00;;;;;;;13.46;71.55;101144.25;7362262;19;20014;-61
2022/09/10 05:35:27;;;;;;;0.00;0.00;;;;;;;13.59;71.46;101175.44;7364407;19;20021;-62
2022/09/10 05:37:57;;;;;;;0.00;0.00;;;;;;;13.58;71.61;101177.16;7365503;19;20021;-61
2022/09/10 05:40:24;;;;;;;0.00;0.00;;;;;;;13.55;71.64;101179.03;7362071;19;20124;-61
2022/09/10 05:42:49;;;;;;;0.00;0.00;;;;;;;13.53;71.31;101171.19;7361416;19;20049;-62
2022/09/10 05:45:17;;;;;;;0.00;0.00;;;;;;;13.52;71.36;101172.09;7363637;19;20419;-61
2022/09/10 05:47:43;;;;;;;0.00;0.00;;;;;;;13.51;70.81;101180.88;7361904;19;20426;-61
2022/09/10 05:50:09;;;;;;;0.03;0.03;;;;;;;13.49;71.00;101174.81;7363769;19;20097;-61
2022/09/10 05:52:35;;;;;;;0.00;0.00;;;;;;;13.47;71.38;101187.97;7363955;19;20368;-61
2022/09/10 05:55:00;;;;;;;0.00;0.00;;;;;;;13.32;71.16;101161.28;7360848;19;20006;-61
2022/09/10 05:57:25;;;;;;;0.00;0.00;;;;;;;13.44;71.36;101179.34;7363351;19;20739;-61
2022/09/10 05:59:51;;;;;;;0.00;0.00;;;;;;;13.45;71.66;101181.03;7353759;19;20011;-61
2022/09/10 06:02:17;;;;;;;0.00;0.00;;;;;;;13.42;71.68;101184.59;7361916;19;20042;-61
2022/09/10 06:04:43;;;;;;;0.00;0.00;;;;;;;13.41;71.30;101182.88;7360455;19;20028;-62
2022/09/10 06:07:09;;;;;;;0.00;0.00;;;;;;;13.40;71.41;101188.19;7362992;19;20085;-62
2022/09/10 06:09:34;;;;;;;0.00;0.00;;;;;;;13.28;71.46;101180.63;7359717;19;20028;-61
2022/09/10 06:12:00;;;;;;;0.00;0.00;;;;;;;13.35;72.02;101192.69;7361443;19;20010;-61
2022/09/10 06:14:25;;;;;;;0.00;0.00;;;;;;;13.32;71.45;101187.50;7360171;19;19999;-61
2022/09/10 06:16:53;;;;;;;0.00;0.00;;;;;;;13.39;71.94;101204.81;7362129;19;20010;-61
2022/09/10 06:19:19;;;;;;;0.00;0.00;;;;;;;13.37;71.92;101206.59;7362131;19;20006;-61
2022/09/10 06:21:45;;;;;;;0.00;0.00;;;;;;;13.36;71.96;101202.28;7359576;19;20557;-61
2022/09/10 06:24:14;;;;;;;0.05;0.05;;;;;;;13.37;71.85;101207.47;7360754;19;20002;-62
2022/09/10 06:26:40;;;;;;;0.00;0.00;;;;;;;13.37;71.89;101206.59;7360540;19;20006;-61
2022/09/10 06:29:06;;;;;;;0.00;0.00;;;;;;;13.35;71.97;101209.28;7352603;19;20019;-61
2022/09/10 06:31:33;;;;;;;0.00;0.00;;;;;;;13.34;72.37;101206.72;7361742;19;20029;-61
2022/09/10 06:34:00;;;;;;;0.00;0.00;;;;;;;13.35;71.85;101208.44;7361174;19;20885;-61
2022/09/10 06:36:27;;;;;;;0.00;0.00;;;;;;;13.37;71.93;101209.22;7361076;19;20479;-61
2022/09/10 06:38:56;;;;;;;0.00;0.00;;;;;;;13.37;71.94;101214.47;7360491;19;20022;-61
2022/09/10 06:41:23;;;;;;;0.00;0.00;;;;;;;13.40;71.89;101217.03;7359053;19;20754;-61
2022/09/10 06:43:49;;;;;;;0.00;0.00;;;;;;;13.38;71.85;101208.31;7359902;19;20011;-61
2022/09/10 06:46:17;;;;;;;0.00;0.00;;;;;;;13.44;71.90;101218.69;7360744;19;20037;-61
2022/09/10 06:48:44;;;;;;;0.00;0.00;;;;;;;13.46;72.27;101222.13;7361288;19;20017;-61
2022/09/10 06:51:11;;;;;;;0.00;0.00;;;;;;;13.37;72.25;101201.38;7360254;19;20018;-61
2022/09/10 06:53:38;;;;;;;0.05;0.05;;;;;;;13.37;72.31;101196.13;7357498;19;20023;-61
2022/09/10 06:56:04;;;;;;;0.00;0.00;;;;;;;13.54;72.17;101212.28;7363267;19;20010;-61
2022/09/10 06:58:33;;;;;;;0.00;0.00;;;;;;;13.57;72.41;101211.34;7362836;19;20039;-61
2022/09/10 07:01:14;;;;;;;0.00;0.00;;;;;;;13.59;71.92;101213.03;7364816;19;20018;-61
2022/09/10 07:03:42;;;;;;;0.00;0.00;;;;;;;13.64;72.15;101226.88;7364297;19;20018;-61
2022/09/10 07:06:09;;;;;;;0.00;0.00;;;;;;;13.68;72.27;101230.25;7364990;19;20799;-61
2022/09/10 07:08:35;;;;;;;;;;;;;;;13.75;71.33;101230.06;7366304;19;20093;-62
2022/09/10 07:11:03;;;;;;;0.00;0.00;;;;;;;13.79;72.29;101235.22;7364662;19;19966;-61
2022/09/10 07:13:30;;;;;;;0.00;0.00;;;;;;;13.82;72.23;101240.41;7364948;19;20351;-61
2022/09/10 07:15:56;;;;;;;0.00;0.00;;;;;;;13.85;72.26;101242.94;7365723;19;20017;-61
2022/09/10 07:18:22;;;;;;;0.00;0.00;;;;;;;13.87;72.35;101243.75;7365405;19;20009;-61
2022/09/10 07:20:48;;;;;;;0.00;0.00;;;;;;;13.91;72.88;101245.41;7363845;19;20006;-61
2022/09/10 07:23:16;;;;;;;0.00;0.00;;;;;;;13.97;72.72;101239.97;7365517;19;20348;-61
2022/09/10 07:25:41;;;;;;;0.00;0.00;;;;;;;13.99;72.88;101251.31;7365013;19;20030;-61
2022/09/10 07:28:14;;;;;;;0.00;0.00;;;;;;;14.06;72.45;101252.84;7365390;19;20021;-61
2022/09/10 07:30:41;;;;;;;0.00;0.00;;;;;;;14.12;72.59;101260.53;7365315;19;20696;-60
2022/09/10 07:33:07;;;;;;;0.00;0.00;;;;;;;14.18;73.06;101270.88;7365202;19;20061;-61
2022/09/10 07:35:35;;;;;;;0.00;0.00;;;;;;;14.24;72.83;101270.72;7364030;19;20014;-61
2022/09/10 07:38:00;;;;;;;0.00;0.00;;;;;;;14.31;72.84;101268.78;7364498;19;20007;-61
2022/09/10 07:40:27;;;;;;;0.00;0.00;;;;;;;14.38;73.07;101272.06;7362686;19;20454;-61
2022/09/10 07:42:54;;;;;;;0.00;0.00;;;;;;;14.40;73.07;101259.78;7365684;19;20018;-61
2022/09/10 07:45:20;;;;;;;0.00;0.00;;;;;;;14.50;73.05;101267.34;7364696;19;20027;-61
2022/09/10 07:47:47;;;;;;;0.00;0.00;;;;;;;14.57;72.99;101269.81;7362096;19;20074;-61
2022/09/10 07:50:13;;;;;;;0.00;0.00;;;;;;;14.61;72.80;101264.41;7362874;19;20018;-61
2022/09/10 07:52:39;;;;;;;0.00;0.00;;;;;;;14.61;72.73;101245.16;7364272;19;20018;-61
2022/09/10 07:55:05;;;;;;;0.00;0.00;;;;;;;14.74;72.88;101260.47;7361732;19;20031;-60
2022/09/10 07:57:33;;;;;;;0.00;0.00;;;;;;;14.84;72.27;101262.81;7349609;19;20021;-61
2022/09/10 07:59:59;;;;;;;0.00;0.00;;;;;;;14.90;72.25;101266.16;7355096;19;21703;-61
2022/09/10 08:02:25;;;;;;;0.00;0.00;;;;;;;14.97;72.61;101266.81;7359163;19;20011;-61
2022/09/10 08:04:51;;;;;;;0.00;0.00;;;;;;;15.05;72.63;101270.03;7358346;19;20346;-61
2022/09/10 08:07:16;;;;;;;0.00;0.00;;;;;;;15.10;72.33;101268.09;7362545;19;20014;-61
2022/09/10 08:09:42;;;;;;;0.00;0.00;;;;;;;15.08;72.37;101248.91;7355734;19;20127;-61
2022/09/10 08:12:08;;;;;;;0.00;0.00;;;;;;;15.27;72.46;101276.31;7364072;19;20102;-61
2022/09/10 08:14:33;;;;;;;0.00;0.00;;;;;;;15.26;72.23;101256.19;7354108;19;20018;-61
2022/09/10 08:17:00;;;;;;;0.05;0.05;;;;;;;15.42;72.68;101272.31;7362713;19;20093;-61
2022/09/10 08:19:26;;;;;;;0.03;0.03;;;;;;;15.50;72.74;101278.16;7359732;19;20053;-61
2022/09/10 08:21:51;;;;;;;0.00;0.00;;;;;;;15.58;72.70;101270.03;7363429;19;20010;-61
2022/09/10 08:24:17;;;;;;;0.10;0.10;;;;;;;15.71;72.59;101275.75;7362647;19;20018;-61
2022/09/10 08:26:42;;;;;;;0.00;0.00;;;;;;;15.87;72.19;101276.97;7352714;19;19998;-61
2022/09/10 08:29:08;;;;;;;0.00;0.00;;;;;;;16.06;72.97;101271.88;7362641;19;20007;-61
2022/09/10 08:31:33;;;;;;;0.00;0.00;;;;;;;16.29;73.11;101266.63;7360018;19;20011;-61
2022/09/10 08:33:59;;;;;;;0.00;0.00;;;;;;;16.55;72.31;101264.78;7363589;19;20022;-61
2022/09/10 08:36:25;;;;;;;0.10;0.10;;;;;;;16.73;72.07;101256.19;7360411;19;20010;-61
2022/09/10 08:38:51;;;;;;;0.00;0.00;;;;;;;17.06;71.81;101264.50;7363777;19;20021;-61
2022/09/10 08:41:38;;;;;;;0.07;0.07;;;;;;;17.49;71.46;101269.81;7360416;19;20751;-61
2022/09/10 08:44:31;;;;;;;0.00;0.00;;;;;;;17.83;70.61;101274.50;7260747;19;2004527;-61
2022/09/10 08:47:20;;;;;;;0.00;0.00;;;;;;;18.21;70.51;101279.91;7252951;19;2004464;-61
2022/09/10 08:49:54;;;;;;;0.00;0.00;;;;;;;18.50;69.43;101292.66;7256128;19;2004434;-62
2022/09/10 08:52:34;;;;;;;0.00;0.00;;;;;;;18.77;68.40;101285.22;7361732;19;20048;-62
2022/09/10 08:55:12;;;;;;;0.00;0.00;;;;;;;19.14;68.31;101294.03;7342454;19;20019;-61
2022/09/10 08:58:17;;;;;;;0.03;0.03;;;;;;;19.44;68.40;101292.50;7340249;19;20023;-61
2022/09/10 09:00:44;;;;;;;0.00;0.00;;;;;;;19.66;66.93;101289.66;7246026;19;2004008;-62
2022/09/10 09:03:32;;;;;;;0.00;0.00;;;;;;;19.95;65.83;101287.31;7348991;19;20030;-61
2022/09/10 09:05:59;;;;;;;0.00;0.00;;;;;;;20.35;65.23;101295.78;7341229;19;20956;-61
2022/09/10 09:08:29;;;;;;;0.03;0.03;;;;;;;20.69;64.19;101292.19;7349180;19;20018;-62
2022/09/10 09:11:01;;;;;;;0.10;0.10;;;;;;;20.94;64.83;101305.81;7344868;19;20948;-62
2022/09/10 09:13:35;;;;;;;0.00;0.00;;;;;;;21.05;63.70;101307.00;7347088;19;20021;-62
2022/09/10 09:16:38;;;;;;;0.10;0.10;;;;;;;21.12;64.60;101305.69;7344765;19;20039;-62
2022/09/10 09:19:35;;;;;;;0.00;0.00;;;;;;;21.10;64.74;101304.94;7242397;19;2004350;-62
2022/09/10 09:22:19;;;;;;;0.10;0.10;;;;;;;21.09;64.08;101303.22;7245810;19;2004434;-62
2022/09/10 09:24:51;;;;;;;0.00;0.00;;;;;;;21.14;61.84;101302.00;7342958;19;20917;-61
2022/09/10 09:27:18;;;;;;;0.00;0.00;;;;;;;21.38;62.62;101305.06;7343774;19;20021;-62
2022/09/10 09:30:01;;;;;;;0.10;0.10;;;;;;;21.79;63.15;101304.41;7341033;19;20023;-62
2022/09/10 09:32:29;;;;;;;0.00;0.00;;;;;;;22.05;61.75;101301.97;7348703;19;20021;-61
2022/09/10 09:35:05;;;;;;;0.05;0.05;;;;;;;22.30;60.28;101304.88;7345001;19;21362;-62
2022/09/10 09:37:33;;;;;;;0.00;0.00;;;;;;;22.47;59.33;101302.03;7348782;19;20814;-61
2022/09/10 09:40:20;;;;;;;0.10;0.10;;;;;;;22.94;61.77;101307.97;7346516;19;20561;-61
2022/09/10 09:42:55;;;;;;;0.00;0.00;;;;;;;23.19;59.78;101313.38;7350581;19;20507;-61
2022/09/10 09:45:33;;;;;;;0.00;0.00;;;;;;;23.54;59.49;101308.38;7349459;19;20018;-62
2022/09/10 09:47:58;;;;;;;0.00;0.00;;;;;;;23.84;58.22;101304.63;7348747;19;20007;-61
2022/09/10 09:50:24;;;;;;;0.10;0.10;;;;;;;24.24;56.70;101301.84;7346745;19;20027;-62
2022/09/10 09:52:55;;;;;;;0.10;0.10;;;;;;;24.69;56.42;101310.25;7349505;19;20019;-61
2022/09/10 09:55:33;;;;;;;0.00;0.00;;;;;;;24.93;57.30;101303.09;7349320;19;20002;-62
2022/09/10 09:58:20;;;;;;;0.10;0.10;;;;;;;25.13;58.01;101303.47;7349688;19;20017;-62
2022/09/10 10:00:47;;;;;;;;;;;;;;;25.29;58.77;101314.72;7351492;19;20006;-61
2022/09/10 10:03:19;;;;;;;0.10;0.10;;;;;;;25.24;55.57;101311.53;7350492;19;19921;-62
2022/09/10 10:05:47;;;;;;;0.00;0.00;;;;;;;25.33;54.83;101313.53;7350215;19;20010;-62
2022/09/10 10:08:24;;;;;;;0.05;0.05;;;;;;;25.56;56.46;101314.47;7349530;19;20952;-62
2022/09/10 10:10:51;;;;;;;0.10;0.10;;;;;;;25.61;54.33;101315.84;7346208;19;20014;-62
2022/09/10 10:13:20;;;;;;;0.10;0.10;;;;;;;25.84;54.20;101310.56;7351592;19;20063;-61
2022/09/10 10:15:45;;;;;;;0.00;0.00;;;;;;;25.77;52.87;101309.34;7348930;19;20017;-62
2022/09/10 10:18:30;;;;;;;0.10;0.10;;;;;;;26.01;54.48;101323.50;7350605;19;20011;-62
2022/09/10 10:21:27;;;;;;;0.10;0.10;;;;;;;26.01;54.61;101326.19;7349430;19;20043;-61
2022/09/10 10:23:56;;;;;;;0.03;0.03;;;;;;;25.78;52.66;101311.03;7246379;19;2004459;-61
2022/09/10 10:26:31;;;;;;;0.10;0.10;;;;;;;25.79;53.09;101318.09;7350468;19;20019;-62
2022/09/10 10:29:05;;;;;;;0.10;0.10;;;;;;;25.65;53.15;101315.56;7351261;19;20018;-62
2022/09/10 10:31:39;;;;;;;0.05;0.05;;;;;;;25.57;53.17;101314.34;7355482;19;20015;-62
2022/09/10 10:34:13;;;;;;;0.10;0.10;;;;;;;25.58;53.44;101308.03;7356115;19;20014;-61
2022/09/10 10:37:20;;;;;;;0.08;0.08;;;;;;;25.86;55.36;101308.63;7357262;19;20006;-62
2022/09/10 10:40:29;;;;;;;0.00;0.00;;;;;;;26.33;55.94;101312.06;7252248;19;2004475;-62
2022/09/10 10:43:19;;;;;;;0.10;0.10;;;;;;;26.72;54.24;101315.25;7249546;19;2004494;-61
2022/09/10 10:46:04;;;;;;;0.08;0.08;;;;;;;27.22;54.04;101320.97;7354802;19;20730;-62
2022/09/10 10:48:57;;;;;;;0.03;0.03;;;;;;;27.75;54.48;101316.50;7356052;19;20627;-62
2022/09/10 10:51:44;;;;;;;0.10;0.10;;;;;;;28.11;47.42;101314.31;7253113;19;2004494;-62
2022/09/10 10:54:25;;;;;;;0.10;0.10;;;;;;;28.32;45.62;101306.22;7347315;19;20133;-62
2022/09/10 10:57:34;;;;;;;0.10;0.10;;;;;;;28.65;50.34;101313.16;7356914;19;21010;-61
2022/09/10 11:00:19;;;;;;;0.10;0.10;;;;;;;28.68;49.94;101297.59;7251309;19;2004440;-62
2022/09/10 11:03:09;;;;;;;0.10;0.10;;;;;;;29.05;49.18;101299.69;7355714;19;20042;-62
2022/09/10 11:05:40;;;;;;;0.10;0.10;;;;;;;29.25;43.40;101299.66;7353747;19;20006;-62
2022/09/10 11:08:15;;;;;;;0.10;0.10;;;;;;;29.62;48.13;101281.84;7355077;19;20003;-62
2022/09/10 11:10:45;;;;;;;0.00;0.00;;;;;;;30.01;46.88;101299.72;7350943;19;21509;-62
2022/09/10 11:13:42;;;;;;;0.00;0.00;;;;;;;30.31;47.49;101282.50;7351848;19;20021;-62
2022/09/10 11:16:15;;;;;;;0.10;0.10;;;;;;;30.37;44.63;101290.00;7252796;19;2004423;-62
2022/09/10 11:18:48;;;;;;;0.00;0.00;;;;;;;30.20;43.62;101276.28;7354160;19;20013;-62
2022/09/10 11:21:31;;;;;;;0.10;0.10;;;;;;;30.16;43.83;101296.47;7352822;19;20010;-62
2022/09/10 11:24:09;;;;;;;0.00;0.00;;;;;;;29.89;43.74;101297.22;7352561;19;20018;-61
2022/09/10 11:26:40;;;;;;;0.10;0.10;;;;;;;29.52;42.41;101291.75;7354596;19;20102;-61
2022/09/10 11:29:30;;;;;;;0.00;0.00;;;;;;;29.36;45.07;101296.84;7352240;19;20473;-62
2022/09/10 11:32:05;;;;;;;0.05;0.05;;;;;;;29.09;46.71;101301.06;7355161;19;20010;-62
2022/09/10 11:34:49;;;;;;;0.00;0.00;;;;;;;28.90;44.63;101298.34;7354699;19;20014;-62
2022/09/10 11:37:23;;;;;;;0.00;0.00;;;;;;;28.66;45.51;101293.34;7353449;19;20041;-62
2022/09/10 11:39:53;;;;;;;0.00;0.00;;;;;;;28.47;44.65;101288.75;7349507;19;20031;-61
2022/09/10 11:42:27;;;;;;;0.10;0.10;;;;;;;28.45;45.72;101271.94;7354493;19;20070;-62